^^
Your Local Weather - Clay, NY Station Historical Data
Daily Summary for July 25, 2017 Units:  English    Metric   Both
« Previous Day
Next Day »
Daily Weekly Monthly Yearly Custom
  High: Low: Average:
Temperature: 65.9 °F 60.4 °F 62.7 °F
Dew Point: 61.0 °F 58.1 °F 59.4 °F
Humidity: 93% 82% 89%
Wind Speed: 3.0mph 0.0mph 0.5mph
Wind Gust: 6.0mph - -
Wind- - WNW
Pressure: 30.19 in 29.85 in -
Precipitation: 0.01 in    
Historical Graphs
 
 
Tabular Data for July 25, 2017
Time Temperature Dew Point Pressure Wind Wind Speed Wind Gust Humidity Rainfall Rate (Hourly) solar
00:04 60.4 °F 58.1 °F 29.85 in Calm     92% 0.00 in 0 W/m2
00:10 60.4 °F 58.1 °F 29.85 in Calm     92% 0.00 in 0 W/m2
00:16 60.4 °F 58.1 °F 29.86 in Calm     92% 0.00 in 0 W/m2
00:22 60.5 °F 58.2 °F 29.86 in Calm     92% 0.00 in 0 W/m2
00:28 60.4 °F 58.1 °F 29.86 in Calm     92% 0.00 in 0 W/m2
00:34 60.5 °F 58.2 °F 29.86 in Calm     92% 0.00 in 0 W/m2
00:40 60.5 °F 58.2 °F 29.87 in Calm     92% 0.00 in 0 W/m2
00:46 60.5 °F 58.2 °F 29.87 in Calm     92% 0.00 in 0 W/m2
00:52 60.6 °F 58.3 °F 29.87 in Calm     92% 0.00 in 0 W/m2
00:58 60.6 °F 58.3 °F 29.87 in Calm     92% 0.00 in 0 W/m2
01:04 60.7 °F 58.4 °F 29.87 in Calm     92% 0.00 in 0 W/m2
01:10 60.8 °F 58.8 °F 29.87 in Calm     93% 0.00 in 0 W/m2
01:16 60.8 °F 58.8 °F 29.87 in Calm     93% 0.00 in 0 W/m2
01:22 60.8 °F 58.8 °F 29.87 in Calm     93% 0.00 in 0 W/m2
01:28 60.9 °F 58.9 °F 29.87 in Calm     93% 0.00 in 0 W/m2
01:34 60.8 °F 58.8 °F 29.88 in Calm     93% 0.00 in 0 W/m2
01:40 60.8 °F 58.8 °F 29.88 in Calm     93% 0.00 in 0 W/m2
01:46 60.9 °F 58.9 °F 29.88 in Calm     93% 0.00 in 0 W/m2
01:52 61.0 °F 59.0 °F 29.88 in Calm     93% 0.00 in 0 W/m2
01:58 61.3 °F 59.3 °F 29.88 in Calm     93% 0.00 in 0 W/m2
02:04 61.4 °F 59.4 °F 29.88 in Calm     93% 0.00 in 0 W/m2
02:10 61.5 °F 59.5 °F 29.88 in Calm     93% 0.00 in 0 W/m2
02:16 61.7 °F 59.7 °F 29.89 in Calm   1.0 mph 93% 0.00 in 0 W/m2
02:22 61.8 °F 59.8 °F 29.89 in Calm     93% 0.00 in 0 W/m2
02:28 61.9 °F 59.9 °F 29.89 in Calm   1.0 mph 93% 0.00 in 0 W/m2
02:34 61.9 °F 59.9 °F 29.89 in Calm     93% 0.00 in 0 W/m2
02:40 62.0 °F 60.0 °F 29.89 in Calm   1.0 mph 93% 0.00 in 0 W/m2
02:46 62.0 °F 60.0 °F 29.90 in Calm   2.0 mph 93% 0.00 in 0 W/m2
02:52 62.0 °F 60.0 °F 29.90 in Calm   3.0 mph 93% 0.00 in 0 W/m2
02:58 62.0 °F 60.0 °F 29.90 in Calm   3.0 mph 93% 0.00 in 0 W/m2
03:04 62.0 °F 60.0 °F 29.90 in NW 1.0 mph 1.0 mph 93% 0.00 in 0 W/m2
03:10 61.9 °F 59.9 °F 29.90 in Calm     93% 0.00 in 0 W/m2
03:16 61.9 °F 59.9 °F 29.90 in Calm     93% 0.00 in 0 W/m2
03:22 61.8 °F 59.8 °F 29.90 in Calm     93% 0.00 in 0 W/m2
03:28 61.8 °F 59.8 °F 29.90 in Calm     93% 0.00 in 0 W/m2
03:34 61.8 °F 59.8 °F 29.90 in Calm     93% 0.00 in 0 W/m2
03:40 61.8 °F 59.8 °F 29.90 in Calm     93% 0.00 in 0 W/m2
03:46 61.8 °F 59.8 °F 29.91 in Calm     93% 0.00 in 0 W/m2
03:52 61.8 °F 59.8 °F 29.91 in Calm     93% 0.00 in 0 W/m2
03:58 61.8 °F 59.8 °F 29.91 in Calm     93% 0.00 in 0 W/m2
04:04 61.7 °F 59.7 °F 29.92 in Calm   2.0 mph 93% 0.00 in 0 W/m2
04:10 61.7 °F 59.7 °F 29.92 in Calm     93% 0.00 in 0 W/m2
04:16 61.6 °F 59.6 °F 29.92 in Calm     93% 0.00 in 0 W/m2
04:22 61.6 °F 59.6 °F 29.92 in Calm     93% 0.00 in 0 W/m2
04:28 61.6 °F 59.6 °F 29.92 in Calm   1.0 mph 93% 0.00 in 0 W/m2
04:34 61.6 °F 59.6 °F 29.93 in West 1.0 mph 1.0 mph 93% 0.00 in 0 W/m2
04:40 61.5 °F 59.5 °F 29.93 in NW 1.0 mph 1.0 mph 93% 0.00 in 0 W/m2
04:46 61.5 °F 59.5 °F 29.93 in Calm   1.0 mph 93% 0.00 in 0 W/m2
04:52 61.5 °F 59.5 °F 29.93 in Calm     93% 0.00 in 0 W/m2
04:58 61.5 °F 59.2 °F 29.93 in Calm   1.0 mph 92% 0.00 in 0 W/m2
05:04 61.4 °F 59.1 °F 29.93 in NNW 1.0 mph 3.0 mph 92% 0.00 in 0 W/m2
05:10 61.3 °F 59.0 °F 29.94 in NNW 1.0 mph 1.0 mph 92% 0.00 in 0 W/m2
05:16 61.2 °F 58.9 °F 29.94 in NNW 1.0 mph 2.0 mph 92% 0.00 in 0 W/m2
05:22 61.1 °F 58.8 °F 29.94 in Calm     92% 0.00 in 0 W/m2
05:28 61.1 °F 58.8 °F 29.94 in Calm   2.0 mph 92% 0.00 in 0 W/m2
05:34 61.0 °F 58.7 °F 29.95 in Calm     92% 0.00 in 0 W/m2
05:40 61.0 °F 58.7 °F 29.95 in Calm     92% 0.00 in 0 W/m2
05:46 61.0 °F 58.7 °F 29.95 in Calm     92% 0.00 in 0 W/m2
05:52 60.9 °F 58.6 °F 29.95 in Calm   2.0 mph 92% 0.00 in 0 W/m2
05:58 60.9 °F 58.6 °F 29.95 in Calm   2.0 mph 92% 0.00 in 0 W/m2
06:04 60.9 °F 58.6 °F 29.95 in Calm     92% 0.00 in 0 W/m2
06:10 60.9 °F 58.6 °F 29.95 in Calm     92% 0.00 in 0 W/m2
06:16 60.9 °F 58.6 °F 29.96 in Calm     92% 0.00 in 0 W/m2
06:22 60.9 °F 58.6 °F 29.96 in Calm     92% 0.00 in 7 W/m2
06:28 60.7 °F 58.4 °F 29.96 in Calm   1.0 mph 92% 0.00 in 11 W/m2
06:34 60.7 °F 58.4 °F 29.96 in Calm     92% 0.00 in 11 W/m2
06:40 60.6 °F 58.3 °F 29.97 in Calm     92% 0.00 in 18 W/m2
06:46 60.6 °F 58.3 °F 29.97 in Calm     92% 0.00 in 23 W/m2
06:52 60.5 °F 58.2 °F 29.98 in Calm     92% 0.00 in 21 W/m2
06:58 60.6 °F 58.6 °F 29.98 in Calm   2.0 mph 93% 0.00 in 30 W/m2
07:04 60.6 °F 58.6 °F 29.98 in Calm     93% 0.00 in 28 W/m2
07:10 60.6 °F 58.6 °F 29.98 in Calm     93% 0.00 in 25 W/m2
07:16 60.4 °F 58.4 °F 29.98 in NW 1.0 mph 2.0 mph 93% 0.00 in 26 W/m2
07:22 60.5 °F 58.5 °F 29.99 in NW 1.0 mph 1.0 mph 93% 0.00 in 25 W/m2
07:28 60.4 °F 58.4 °F 29.99 in Calm   1.0 mph 93% 0.00 in 42 W/m2
07:34 60.5 °F 58.5 °F 29.99 in Calm   1.0 mph 93% 0.00 in 40 W/m2
07:40 60.5 °F 58.5 °F 29.99 in Calm     93% 0.00 in 39 W/m2
07:46 60.4 °F 58.4 °F 29.99 in NW 1.0 mph 1.0 mph 93% 0.00 in 33 W/m2
07:52 60.4 °F 58.4 °F 29.99 in North 1.0 mph 1.0 mph 93% 0.00 in 47 W/m2
07:58 60.4 °F 58.4 °F 29.99 in North 1.0 mph 1.0 mph 93% 0.00 in 95 W/m2
08:04 60.6 °F 58.6 °F 30.00 in Calm   2.0 mph 93% 0.00 in 104 W/m2
08:10 60.6 °F 58.6 °F 30.00 in NW 1.0 mph 1.0 mph 93% 0.00 in 114 W/m2
08:16 60.9 °F 58.9 °F 30.00 in Calm   1.0 mph 93% 0.00 in 102 W/m2
08:22 61.0 °F 59.0 °F 30.00 in Calm     93% 0.00 in 144 W/m2
08:28 61.3 °F 59.0 °F 30.01 in Calm   1.0 mph 92% 0.00 in 107 W/m2
08:34 61.3 °F 59.0 °F 30.01 in Calm   3.0 mph 92% 0.00 in 72 W/m2
08:40 61.1 °F 58.8 °F 30.01 in WSW 1.0 mph 1.0 mph 92% 0.00 in 84 W/m2
08:46 61.1 °F 58.5 °F 30.01 in WNW 1.0 mph 3.0 mph 91% 0.00 in 109 W/m2
08:52 61.1 °F 58.5 °F 30.01 in West 1.0 mph 2.0 mph 91% 0.00 in 127 W/m2
08:58 61.3 °F 58.7 °F 30.01 in WSW 1.0 mph 4.0 mph 91% 0.00 in 181 W/m2
09:04 61.5 °F 58.8 °F 30.01 in NW 1.0 mph 2.0 mph 91% 0.00 in 178 W/m2
09:10 61.7 °F 58.7 °F 30.02 in North 1.0 mph 1.0 mph 90% 0.00 in 158 W/m2
09:16 62.1 °F 59.1 °F 30.02 in NNW 1.0 mph 2.0 mph 90% 0.00 in 195 W/m2
09:22 62.2 °F 59.2 °F 30.02 in NNW 1.0 mph 1.0 mph 90% 0.00 in 162 W/m2
09:28 62.5 °F 59.5 °F 30.02 in NNW 1.0 mph 1.0 mph 90% 0.00 in 225 W/m2
09:34 62.4 °F 59.1 °F 30.02 in NW 2.0 mph 2.0 mph 89% 0.00 in 244 W/m2
09:40 62.7 °F 59.4 °F 30.02 in WSW 1.0 mph 1.0 mph 89% 0.00 in 162 W/m2
09:46 62.7 °F 59.4 °F 30.02 in West 1.0 mph 2.0 mph 89% 0.00 in 186 W/m2
09:52 62.7 °F 59.4 °F 30.03 in West 1.0 mph 3.0 mph 89% 0.00 in 98 W/m2
09:58 62.3 °F 59.0 °F 30.03 in WNW 1.0 mph 3.0 mph 89% 0.00 in 178 W/m2
10:04 62.4 °F 59.4 °F 30.03 in WNW 1.0 mph 3.0 mph 90% 0.00 in 171 W/m2
10:10 62.0 °F 58.7 °F 30.03 in NW 1.0 mph 1.0 mph 89% 0.00 in 206 W/m2
10:16 62.1 °F 59.1 °F 30.03 in WSW 1.0 mph 2.0 mph 90% 0.00 in 243 W/m2
10:22 62.4 °F 59.4 °F 30.04 in West 1.0 mph 1.0 mph 90% 0.00 in 151 W/m2
10:28 62.1 °F 59.1 °F 30.04 in West 1.0 mph 1.0 mph 90% 0.00 in 137 W/m2
10:34 61.9 °F 58.9 °F 30.04 in WSW 1.0 mph 2.0 mph 90% 0.00 in 130 W/m2
10:40 62.0 °F 59.3 °F 30.04 in NNW 1.0 mph 1.0 mph 91% 0.00 in 221 W/m2
10:46 62.4 °F 59.7 °F 30.04 in Calm   2.0 mph 91% 0.00 in 323 W/m2
10:52 62.5 °F 59.8 °F 30.04 in North 1.0 mph 3.0 mph 91% 0.00 in 132 W/m2
10:58 62.2 °F 59.2 °F 30.04 in WNW 2.0 mph 4.0 mph 90% 0.00 in 190 W/m2
11:04 62.1 °F 59.1 °F 30.05 in NW 3.0 mph 3.0 mph 90% 0.00 in 329 W/m2
11:10 62.4 °F 59.4 °F 30.05 in North 3.0 mph 3.0 mph 90% 0.00 in 149 W/m2
11:16 62.3 °F 59.3 °F 30.06 in NW 3.0 mph 3.0 mph 90% 0.00 in 139 W/m2
11:22 61.9 °F 58.6 °F 30.06 in NW 2.0 mph 2.0 mph 89% 0.00 in 153 W/m2
11:30 61.8 °F 58.8 °F 30.06 in NNW 2.0 mph 2.0 mph 90% 0.00 in 158 W/m2
11:36 61.9 °F 58.9 °F 30.06 in NNW 1.0 mph 2.0 mph 90% 0.00 in 193 W/m2
11:42 62.2 °F 59.2 °F 30.06 in NW 1.0 mph 2.0 mph 90% 0.00 in 195 W/m2
11:48 62.2 °F 59.2 °F 30.06 in NNW 2.0 mph 4.0 mph 90% 0.00 in 130 W/m2
11:54 61.9 °F 58.6 °F 30.07 in NNE 2.0 mph 6.0 mph 89% 0.00 in 141 W/m2
12:00 61.8 °F 58.5 °F 30.07 in NNE 3.0 mph 4.0 mph 89% 0.00 in 258 W/m2
12:06 62.0 °F 58.7 °F 30.07 in NW 2.0 mph 4.0 mph 89% 0.00 in 155 W/m2
12:12 62.1 °F 58.8 °F 30.07 in WNW 2.0 mph 2.0 mph 89% 0.00 in 399 W/m2
12:18 62.5 °F 59.2 °F 30.07 in NW 1.0 mph 3.0 mph 89% 0.00 in 265 W/m2
12:24 62.9 °F 59.3 °F 30.07 in NW 1.0 mph 3.0 mph 88% 0.00 in 417 W/m2
12:30 63.6 °F 59.7 °F 30.07 in NW 1.0 mph 2.0 mph 87% 0.00 in 267 W/m2
12:36 63.7 °F 59.4 °F 30.07 in North 1.0 mph 4.0 mph 86% 0.00 in 192 W/m2
12:42 63.4 °F 58.8 °F 30.07 in North 2.0 mph 3.0 mph 85% 0.00 in 311 W/m2
12:48 63.3 °F 58.7 °F 30.07 in WNW 2.0 mph 4.0 mph 85% 0.00 in 195 W/m2
12:54 63.0 °F 58.7 °F 30.07 in North 3.0 mph 4.0 mph 86% 0.00 in 401 W/m2
13:00 63.2 °F 59.3 °F 30.07 in North 3.0 mph 4.0 mph 87% 0.00 in 316 W/m2
13:06 63.5 °F 59.6 °F 30.08 in NNE 2.0 mph 4.0 mph 87% 0.00 in 255 W/m2
13:12 63.4 °F 59.1 °F 30.08 in NW 1.0 mph 2.0 mph 86% 0.00 in 197 W/m2
13:18 63.4 °F 59.1 °F 30.08 in NW 1.0 mph 2.0 mph 86% 0.00 in 188 W/m2
13:24 63.3 °F 59.0 °F 30.08 in WNW 1.0 mph 2.0 mph 86% 0.00 in 149 W/m2
13:30 63.0 °F 59.1 °F 30.08 in NNW 1.0 mph 2.0 mph 87% 0.00 in 135 W/m2
13:36 62.8 °F 58.9 °F 30.08 in NW 1.0 mph 2.0 mph 87% 0.00 in 192 W/m2
13:42 62.9 °F 59.0 °F 30.09 in NW 1.0 mph 1.0 mph 87% 0.00 in 211 W/m2
13:48 63.2 °F 59.3 °F 30.09 in NW 1.0 mph 1.0 mph 87% 0.00 in 236 W/m2
13:54 63.2 °F 58.9 °F 30.09 in NW 1.0 mph 2.0 mph 86% 0.00 in 345 W/m2
14:00 63.8 °F 59.9 °F 30.09 in NW 1.0 mph 1.0 mph 87% 0.00 in 341 W/m2
14:06 64.5 °F 60.5 °F 30.09 in Calm   1.0 mph 87% 0.00 in 387 W/m2
14:12 64.9 °F 60.3 °F 30.09 in SW 1.0 mph 1.0 mph 85% 0.00 in 436 W/m2
14:18 65.0 °F 60.0 °F 30.09 in WSW 2.0 mph 3.0 mph 84% 0.00 in 285 W/m2
14:24 65.2 °F 60.2 °F 30.10 in WSW 1.0 mph 2.0 mph 84% 0.00 in 178 W/m2
14:30 65.1 °F 59.5 °F 30.10 in WNW 1.0 mph 1.0 mph 82% 0.00 in 130 W/m2
14:36 64.9 °F 59.6 °F 30.10 in Calm   1.0 mph 83% 0.00 in 135 W/m2
14:42 64.7 °F 59.8 °F 30.10 in Calm   2.0 mph 84% 0.00 in 128 W/m2
14:48 64.5 °F 59.6 °F 30.10 in WNW 1.0 mph 2.0 mph 84% 0.00 in 91 W/m2
14:54 64.3 °F 59.7 °F 30.10 in WNW 1.0 mph 1.0 mph 85% 0.00 in 118 W/m2
15:00 64.3 °F 59.7 °F 30.10 in Calm     85% 0.00 in 121 W/m2
15:06 64.3 °F 59.7 °F 30.10 in Calm     85% 0.00 in 141 W/m2
15:12 64.6 °F 60.3 °F 30.11 in Calm     86% 0.00 in 262 W/m2
15:18 65.0 °F 60.4 °F 30.11 in SW 1.0 mph 1.0 mph 85% 0.00 in 192 W/m2
15:24 65.0 °F 60.0 °F 30.11 in Calm   1.0 mph 84% 0.00 in 172 W/m2
15:30 65.0 °F 60.0 °F 30.11 in NW 1.0 mph 1.0 mph 84% 0.00 in 160 W/m2
15:36 64.8 °F 59.9 °F 30.12 in NW 1.0 mph 2.0 mph 84% 0.00 in 165 W/m2
15:42 64.7 °F 60.1 °F 30.11 in Calm     85% 0.00 in 144 W/m2
15:48 64.9 °F 60.3 °F 30.11 in Calm   1.0 mph 85% 0.00 in 169 W/m2
15:54 65.0 °F 60.4 °F 30.11 in Calm   5.0 mph 85% 0.00 in 204 W/m2
16:00 65.5 °F 60.9 °F 30.11 in Calm     85% 0.00 in 225 W/m2
16:06 65.6 °F 61.0 °F 30.11 in WSW 1.0 mph 1.0 mph 85% 0.00 in 239 W/m2
16:12 65.9 °F 60.9 °F 30.11 in WSW 1.0 mph 1.0 mph 84% 0.00 in 172 W/m2
16:18 65.7 °F 60.4 °F 30.12 in WSW 1.0 mph 2.0 mph 83% 0.00 in 163 W/m2
16:24 65.4 °F 60.1 °F 30.12 in NW 1.0 mph 3.0 mph 83% 0.00 in 120 W/m2
16:30 65.1 °F 60.1 °F 30.12 in NNW 2.0 mph 2.0 mph 84% 0.00 in 67 W/m2
16:36 64.8 °F 59.9 °F 30.12 in NNW 1.0 mph 2.0 mph 84% 0.00 in 54 W/m2
16:42 64.5 °F 59.6 °F 30.12 in North 1.0 mph 1.0 mph 84% 0.00 in 54 W/m2
16:48 64.2 °F 59.3 °F 30.12 in Calm   2.0 mph 84% 0.00 in 47 W/m2
16:54 64.1 °F 59.5 °F 30.12 in NW 1.0 mph 1.0 mph 85% 0.00 in 49 W/m2
17:00 64.0 °F 59.4 °F 30.13 in NW 1.0 mph 1.0 mph 85% 0.00 in 51 W/m2
17:06 64.1 °F 59.5 °F 30.13 in Calm   2.0 mph 85% 0.00 in 69 W/m2
17:12 64.2 °F 59.6 °F 30.13 in Calm   1.0 mph 85% 0.00 in 91 W/m2
17:18 64.3 °F 59.7 °F 30.13 in Calm   1.0 mph 85% 0.00 in 86 W/m2
17:24 64.4 °F 59.8 °F 30.13 in Calm   1.0 mph 85% 0.00 in 104 W/m2
17:30 64.6 °F 60.0 °F 30.13 in Calm   3.0 mph 85% 0.00 in 127 W/m2
17:36 65.0 °F 60.4 °F 30.13 in Calm   3.0 mph 85% 0.00 in 142 W/m2
17:42 65.2 °F 60.2 °F 30.13 in North 1.0 mph 3.0 mph 84% 0.00 in 174 W/m2
17:48 65.1 °F 60.1 °F 30.13 in NW 2.0 mph 4.0 mph 84% 0.00 in 199 W/m2
17:54 65.3 °F 60.0 °F 30.13 in NW 1.0 mph 2.0 mph 83% 0.00 in 200 W/m2
18:00 65.6 °F 60.6 °F 30.13 in Calm   1.0 mph 84% 0.00 in 172 W/m2
18:06 65.7 °F 60.1 °F 30.13 in NW 1.0 mph 2.0 mph 82% 0.00 in 155 W/m2
18:12 65.6 °F 60.3 °F 30.13 in NW 1.0 mph 1.0 mph 83% 0.00 in 149 W/m2
18:18 65.4 °F 60.1 °F 30.13 in NNW 1.0 mph 3.0 mph 83% 0.00 in 151 W/m2
18:24 65.3 °F 60.0 °F 30.13 in WNW 1.0 mph 4.0 mph 83% 0.00 in 120 W/m2
18:30 65.2 °F 60.2 °F 30.13 in WNW 1.0 mph 1.0 mph 84% 0.00 in 125 W/m2
18:36 65.1 °F 60.1 °F 30.13 in WNW 1.0 mph 1.0 mph 84% 0.00 in 135 W/m2
18:42 65.2 °F 60.6 °F 30.13 in Calm     85% 0.00 in 123 W/m2
18:48 65.1 °F 60.5 °F 30.13 in Calm     85% 0.00 in 104 W/m2
18:54 65.1 °F 60.5 °F 30.13 in Calm     85% 0.00 in 104 W/m2
19:00 65.1 °F 60.5 °F 30.13 in Calm     85% 0.00 in 90 W/m2
19:06 65.1 °F 60.5 °F 30.14 in Calm     85% 0.00 in 95 W/m2
19:12 65.2 °F 60.6 °F 30.14 in Calm   1.0 mph 85% 0.00 in 72 W/m2
19:18 65.1 °F 60.8 °F 30.14 in Calm   1.0 mph 86% 0.00 in 42 W/m2
19:24 65.0 °F 60.4 °F 30.14 in Calm   3.0 mph 85% 0.00 in 28 W/m2
19:30 64.8 °F 60.2 °F 30.15 in Calm     85% 0.00 in 23 W/m2
19:36 64.7 °F 60.4 °F 30.15 in Calm   1.0 mph 86% 0.00 in 21 W/m2
19:42 64.7 °F 60.4 °F 30.15 in Calm     86% 0.00 in 18 W/m2
19:48 64.6 °F 60.3 °F 30.15 in Calm   2.0 mph 86% 0.00 in 18 W/m2
19:54 64.6 °F 60.3 °F 30.15 in Calm     86% 0.00 in 18 W/m2
20:00 64.5 °F 60.2 °F 30.15 in Calm     86% 0.00 in 16 W/m2
20:06 64.4 °F 60.1 °F 30.15 in Calm     86% 0.00 in 12 W/m2
20:12 64.3 °F 60.3 °F 30.15 in Calm     87% 0.00 in 12 W/m2
20:18 64.2 °F 60.2 °F 30.16 in Calm     87% 0.00 in 12 W/m2
20:24 64.2 °F 60.2 °F 30.16 in Calm     87% 0.00 in 7 W/m2
20:30 64.2 °F 60.2 °F 30.16 in Calm     87% 0.00 in 0 W/m2
20:36 64.0 °F 60.1 °F 30.17 in WNW 1.0 mph 2.0 mph 87% 0.00 in 0 W/m2
20:42 63.7 °F 60.1 °F 30.17 in NW 1.0 mph 2.0 mph 88% 0.00 in 0 W/m2
20:48 63.4 °F 59.8 °F 30.17 in NW 1.0 mph 4.0 mph 88% 0.00 in 0 W/m2
20:54 63.3 °F 59.7 °F 30.17 in NW 1.0 mph 1.0 mph 88% 0.00 in 0 W/m2
21:00 63.2 °F 59.6 °F 30.17 in Calm     88% 0.00 in 0 W/m2
21:06 63.1 °F 59.8 °F 30.17 in Calm     89% 0.00 in 0 W/m2
21:12 63.0 °F 59.7 °F 30.17 in Calm     89% 0.00 in 0 W/m2
21:18 63.0 °F 59.7 °F 30.17 in Calm     89% 0.00 in 0 W/m2
21:24 62.9 °F 59.6 °F 30.17 in Calm     89% 0.00 in 0 W/m2
21:30 62.9 °F 59.6 °F 30.18 in Calm     89% 0.00 in 0 W/m2
21:36 62.8 °F 59.5 °F 30.18 in Calm     89% 0.00 in 0 W/m2
21:42 62.8 °F 59.8 °F 30.18 in Calm     90% 0.00 in 0 W/m2
21:48 62.8 °F 59.8 °F 30.18 in Calm     90% 0.00 in 0 W/m2
21:54 62.7 °F 59.7 °F 30.18 in Calm     90% 0.00 in 0 W/m2
22:00 62.6 °F 59.9 °F 30.18 in Calm     91% 0.00 in 0 W/m2
22:06 62.6 °F 59.9 °F 30.18 in Calm     91% 0.00 in 0 W/m2
22:12 62.5 °F 59.8 °F 30.18 in Calm     91% 0.00 in 0 W/m2
22:18 62.5 °F 59.8 °F 30.18 in Calm     91% 0.00 in 0 W/m2
22:24 62.5 °F 59.8 °F 30.18 in Calm     91% 0.00 in 0 W/m2
22:30 62.5 °F 59.8 °F 30.18 in Calm     91% 0.00 in 0 W/m2
22:36 62.5 °F 59.8 °F 30.18 in Calm     91% 0.00 in 0 W/m2
22:42 62.5 °F 59.8 °F 30.18 in Calm   1.0 mph 91% 0.00 in 0 W/m2
22:48 62.5 °F 59.8 °F 30.18 in Calm   1.0 mph 91% 0.00 in 0 W/m2
22:54 62.5 °F 59.8 °F 30.19 in Calm     91% 0.00 in 0 W/m2
23:00 62.5 °F 59.8 °F 30.18 in Calm     91% 0.00 in 0 W/m2
23:06 62.6 °F 59.9 °F 30.18 in Calm     91% 0.00 in 0 W/m2
23:12 62.6 °F 59.9 °F 30.18 in Calm     91% 0.00 in 0 W/m2
23:18 62.5 °F 59.8 °F 30.18 in Calm     91% 0.00 in 0 W/m2
23:24 62.5 °F 60.1 °F 30.19 in Calm     92% 0.00 in 0 W/m2
23:30 62.5 °F 59.8 °F 30.19 in Calm     91% 0.00 in 0 W/m2
23:36 62.5 °F 59.8 °F 30.19 in Calm     91% 0.00 in 0 W/m2
23:42 62.5 °F 60.1 °F 30.19 in Calm     92% 0.00 in 0 W/m2
23:48 62.4 °F 60.0 °F 30.19 in Calm     92% 0.00 in 0 W/m2
23:54 62.5 °F 60.1 °F 30.19 in Calm     92% 0.00 in 0 W/m2
Country Meadow, Clay, NY, USA
Compliments of Weather Underground - 2 mb